• Join FlightAware (Why Join?)
  • Login
  • US Flag 
07:52PM EDT


 

Airport Tracker/Info


-or-


 

Live Flight TrackerFlight Track Log ✈ NASA817 ✈ 23-Sep-2013 ✈ KEFD - KPMD

Flight Track Log - Related Links

Times and Time Zones

All times are in EDT time to prevent confusion due to time zone crossing. See the NASA817 flight status page for this flight to view local times or setup timezone preferences in your user account.

Time Position Orientation Groundspeed Altitude Reporting Facility
EDT Latitude Longitude Course Direction KTS MPH feet Rate Location/Type
12:43PM 29.6258 -95.1628 66° East 161 185 600  Level Houston Center
12:44PM 29.6461 -95.1100 66° East 206 237 1,400 600 Climbing Houston Center
12:45PM 29.6500 -95.0786 82° East 217 250 1,700 540 Climbing Houston Center
12:45PM 29.6592 -95.0481 71° East 232 267 1,900 180 Climbing Houston Center
12:46PM 29.6711 -95.0078 71° East 230 265 1,900  Level Houston Center
12:46PM 29.6794 -94.9736 74° East 254 292 1,900  Level Houston Center
12:47PM 29.6978 -94.9175 69° East 242 278 1,900  Level Houston Center
12:47PM 29.7072 -94.8906 68° East 237 273 1,900  Level Houston Center
12:48PM 29.7242 -94.8489 65° Northeast 240 276 1,900  Level Houston Center
12:48PM 29.7364 -94.8219 62° Northeast 232 267 1,900  Level Houston Center
12:49PM 29.7550 -94.7833 61° Northeast 236 272 1,900  Level Houston Center
12:49PM 29.7714 -94.7478 62° Northeast 238 274 1,900 -120 Level Houston Center
12:50PM 29.7942 -94.7244 42° Northeast 257 296 1,800 -360 Descending Houston Center
12:50PM 29.8231 -94.7389 337° Northwest 266 306 1,600 -300 Descending Houston Center
12:51PM 29.8294 -94.7814 280° West 264 304 1,500 -120 Descending Houston Center
12:51PM 29.8050 -94.8133 229° Southwest 253 291 1,500  Level Houston Center
12:52PM 29.7942 -94.8492 251° West 258 297 1,500  Level Houston Center
12:52PM 29.7928 -94.8847 267° West 240 276 1,500  Level Houston Center
12:53PM 29.7914 -94.9428 268° West 249 287 1,500  Level Houston Center
12:53PM 29.7892 -94.9792 266° West 250 288 1,500  Level Houston Center
12:54PM 29.7869 -95.0228 267° West 250 288 1,500  Level Houston Center
12:54PM 29.7833 -95.0519 262° West 256 295 1,500  Level Houston Center
12:55PM 29.7825 -95.1028 269° West 252 290 1,500  Level Houston Center
12:55PM 29.7789 -95.1369 263° West 247 284 1,500  Level Houston Center
12:56PM 29.7792 -95.1808 270° West 250 288 1,500  Level Houston Center
12:56PM 29.7772 -95.2094 266° West 248 285 1,500  Level Houston Center
12:57PM 29.7806 -95.2597 274° West 254 292 1,500  Level Houston Center
12:57PM 29.8003 -95.2764 324° Northwest 248 285 1,500  Level Houston Center
12:58PM 29.8322 -95.2372 47° Northeast 247 284 1,500  Level Houston Center
12:58PM 29.8311 -95.2244 96° East 248 285 1,500  Level Houston Center
12:59PM 29.8222 -95.1564 99° East 250 288 1,500 60 Level Houston Center
12:59PM 29.8194 -95.1439 104° East 261 300 1,600 1,080 Climbing Houston Center
01:00PM 29.8114 -95.0583 96° East 247 284 2,800 720 Climbing Houston Center
01:01PM 29.8061 -94.9947 95° East 251 289 3,000 180 Climbing Houston Center
01:01PM 29.8036 -94.9772 99° East 247 284 3,000  Level Houston Center
01:02PM 29.7989 -94.9156 95° East 249 287 3,000  Level Houston Center
01:02PM 29.7964 -94.8986 100° East 246 283 3,000 240 Level Houston Center
01:03PM 29.7925 -94.8364 94° East 248 285 3,300 540 Climbing Houston Center
01:04PM 29.7950 -94.8194 80° East 245 282 3,600 1,800 Climbing Houston Center
01:05PM 29.8144 -94.7375 75° East 268 308 5,400 1,740 Climbing Houston Center
01:05PM 29.8319 -94.6553 76° East 271 312 7,100 1,860 Climbing Houston Center
01:06PM 29.8328 -94.6458 84° East 283 326 7,300 2,100 Climbing Houston Center
01:06PM 29.8528 -94.5653 74° East 286 329 9,300 1,320 Climbing Houston Center
01:08PM 29.8897 -94.4739 65° Northeast 315 362 10,000 420 Climbing Houston Center
01:09PM 29.9269 -94.3847 64° Northeast 329 379 10,200 720 Climbing Houston Center
01:10PM 29.9939 -94.3119 43° Northeast 380 437 11,600 1,500 Climbing Houston Center
01:11PM 30.1014 -94.2625 22° Northeast 365 420 13,300 1,500 Climbing Houston Center
01:12PM 30.1939 -94.2206 21° North 358 412 14,800 1,440 Climbing Houston Center
01:13PM 30.2897 -94.1806 20° North 362 417 16,300 1,500 Climbing Houston Center
01:14PM 30.3842 -94.1389 21° North 362 417 17,900 1,380 Climbing Houston Center
01:15PM 30.4769 -94.0992 20° North 358 412 19,200 840 Climbing Houston Center
01:16PM 30.5758 -94.0572 20° North 369 425 19,700 540 Climbing Houston Center
01:17PM 30.6786 -94.0117 21° North 384 442 20,400 960 Climbing Houston Center
01:18PM 30.8028 -93.9581 20° North 392 451 21,800 1,080 Climbing Houston Center
01:19PM 30.9094 -93.9114 21° North 402 463 22,700 780 Climbing Houston Center
01:20PM 31.0175 -93.8631 21° North 410 472 23,500 720 Climbing Houston Center
01:21PM 31.1289 -93.8131 21° North 425 489 24,200 720 Climbing Houston Center
01:22PM 31.2422 -93.7642 20° North 431 496 25,000 720 Climbing Houston Center
01:23PM 31.3761 -93.7042 21° North 439 505 25,800 720 Climbing Houston Center
01:24PM 31.4922 -93.6531 21° North 445 512 26,600 720 Climbing Houston Center
01:25PM 31.6094 -93.6017 20° North 447 514 27,400 720 Climbing Houston Center
01:26PM 31.7214 -93.5514 21° North 444 511 28,100 600 Climbing Houston Center
01:27PM 31.8381 -93.4981 21° North 446 513 28,700 420 Climbing Houston Center
01:28PM 31.9564 -93.4458 21° North 450 518 29,000 120 Climbing Houston Center
01:29PM 32.1006 -93.3786 22° Northeast 460 529 29,000  Level Houston Center
01:30PM 32.1931 -93.3311 23° Northeast 455 524 29,000  Level Fort Worth Center
01:31PM 32.3167 -93.2789 20° North 460 529 29,000  Level Fort Worth Center
01:32PM 32.4358 -93.2242 21° North 467 537 29,000  Level Fort Worth Center
01:33PM 32.5614 -93.1667 21° North 467 537 29,000  Level Fort Worth Center
01:34PM 32.6867 -93.1114 20° North 467 537 29,000  Level Fort Worth Center
01:35PM 32.8122 -93.0533 21° North 467 537 29,000  Level Fort Worth Center
01:36PM 32.9333 -92.9956 22° Northeast 467 537 29,000  Level Fort Worth Center
01:37PM 33.0606 -92.9372 21° North 474 545 29,000  Level Fort Worth Center
01:38PM 33.1900 -92.8808 20° North 479 551 29,000  Level Fort Worth Center
01:39PM 33.3153 -92.8225 21° North 479 551 29,000  Level Fort Worth Center
01:41PM 33.6169 -92.6844 21° North 495 570 29,000  Level Memphis Center
01:42PM 33.7431 -92.6281 20° North 490 564 29,000  Level Memphis Center
01:43PM 33.8714 -92.5689 21° North 490 564 29,000  Level Memphis Center
01:44PM 33.9997 -92.5069 22° Northeast 490 564 29,000  Level Memphis Center
01:45PM 34.1261 -92.4422 23° Northeast 496 571 29,000  Level Memphis Center
01:46PM 34.2544 -92.3800 22° Northeast 491 565 29,000  Level Memphis Center
01:47PM 34.3806 -92.3225 21° North 491 565 29,000  Level Memphis Center
01:48PM 34.5089 -92.2625 21° North 491 565 29,000  Level Memphis Center
01:49PM 34.6392 -92.1997 22° Northeast 491 565 29,000  Level Memphis Center
01:50PM 34.7672 -92.1369 22° Northeast 491 565 29,000  Level Memphis Center
01:51PM 34.8933 -92.0736 22° Northeast 496 571 29,000  Level Memphis Center
01:52PM 35.0214 -92.0128 21° North 496 571 29,000  Level Memphis Center
01:53PM 35.1475 -91.9519 22° Northeast 496 571 29,000  Level Memphis Center
01:54PM 35.2669 -91.8931 22° Northeast 496 571 29,000  Level Memphis Center
01:55PM 35.3950 -91.8292 22° Northeast 501 577 29,000  Level Memphis Center
01:56PM 35.5231 -91.7678 21° North 501 577 29,000  Level Memphis Center
01:57PM 35.6508 -91.7033 22° Northeast 495 570 29,000  Level Memphis Center
01:58PM 35.7850 -91.6417 20° North 500 575 29,000  Level Memphis Center
01:59PM 35.9131 -91.5744 23° Northeast 500 575 29,000  Level Memphis Center
02:00PM 36.0344 -91.5119 23° Northeast 485 558 29,000  Level Memphis Center
02:01PM 36.1686 -91.4469 21° North 491 565 29,000  Level Memphis Center
02:02PM 36.2961 -91.3819 22° Northeast 496 571 29,000 -300 Level Memphis Center
02:03PM 36.4258 -91.3189 21° North 496 571 28,400 -1,200 Descending Memphis Center
02:04PM 36.5556 -91.2533 22° Northeast 502 578 26,600 -1,980 Descending Memphis Center
02:06PM 36.7450 -91.1536 23° Northeast 466 536 23,200 -2,160 Descending Kansas City Center
02:07PM 36.8644 -91.0914 23° Northeast 449 517 21,000 -2,100 Descending Kansas City Center
02:08PM 36.9733 -91.0361 22° Northeast 432 497 19,000 -2,100 Descending Kansas City Center
02:09PM 37.0917 -90.9750 22° Northeast 416 479 16,700 -2,100 Descending Kansas City Center
02:10PM 37.1919 -90.9228 23° Northeast 402 463 14,600 -2,040 Descending Kansas City Center
02:11PM 37.2897 -90.8725 22° Northeast 389 448 12,500 -1,860 Descending Kansas City Center
02:12PM 37.3861 -90.8228 22° Northeast 380 437 10,800 -1,140 Descending Kansas City Center
02:13PM 37.4728 -90.7761 23° Northeast 351 404 10,200 -1,020 Descending Kansas City Center
02:14PM 37.5547 -90.7356 21° North 309 356 8,800 -1,320 Descending Kansas City Center
02:15PM 37.6333 -90.6944 22° Northeast 306 352 7,500 -1,260 Descending Kansas City Center
02:16PM 37.7092 -90.6533 23° Northeast 300 345 6,300 -1,140 Descending Kansas City Center
02:17PM 37.7819 -90.6158 22° Northeast 289 333 5,200 -1,200 Descending Kansas City Center
02:18PM 37.8667 -90.5714 22° Northeast 278 320 3,800 -1,260 Descending Kansas City Center
02:19PM 37.9056 -90.6306 310° West 282 325 2,600 -960 Descending Kansas City Center
02:20PM 37.8478 -90.6736 210° Southwest 259 298 1,900 -360 Descending Kansas City Center
02:21PM 37.7822 -90.7242 211° Southwest 254 292 1,900 -60 Level Kansas City Center
02:23PM 37.7107 -90.7981 219° Southwest  Level FlightAware Approximate
02:30PM 37.2352 -90.9080 140° Southeast  Level FlightAware Approximate
02:31PM 37.1677 -90.8370 140° Southeast  Level FlightAware Approximate
02:32PM 37.0999 -90.7665 141° Southeast  Level FlightAware Approximate
02:33PM 37.0312 -90.6977 141° Southeast  Level FlightAware Approximate
02:34PM 36.9624 -90.6289 141° Southeast  Level FlightAware Approximate
02:35PM 36.8936 -90.5602 141° Southeast  Level FlightAware Approximate
02:36PM 36.8249 -90.4914 141° Southeast  Level FlightAware Approximate
02:37PM 36.7562 -90.4227 141° Southeast  Level FlightAware Approximate
02:38PM 36.6875 -90.3540 141° Southeast  Level FlightAware Approximate
02:39PM 36.6189 -90.2852 141° Southeast  Level FlightAware Approximate
02:40PM 36.5504 -90.2164 141° Southeast  Level FlightAware Approximate
02:41PM 36.4818 -90.1478 141° Southeast  Level FlightAware Approximate
02:41PM 36.7278 -90.4114 143° Southeast 274 315 1,600  Level Memphis Center
02:42PM 36.4131 -90.0792 141° Southeast  Level FlightAware Approximate
02:42PM 36.6714 -90.3517 140° Southeast 269 310 1,600  Level Memphis Center
02:43PM 36.3445 -90.0109 141° Southeast  Level FlightAware Approximate
02:43PM 36.6233 -90.2897 134° Southeast 257 296 1,600  Level Memphis Center
02:44PM 36.2788 -89.9384 133° Southeast  Level FlightAware Approximate
02:44PM 36.5672 -90.2303 140° Southeast 257 296 1,300  Level Memphis Center
02:45PM 36.2136 -89.8658 143° Southeast  Level FlightAware Approximate
02:45PM 36.5108 -90.1711 140° Southeast 263 303 1,400  Level Memphis Center
02:46PM 36.4647 -90.1014 129° Southeast 263 303 1,300 -60 Descending Memphis Center
02:47PM 36.4125 -90.0450 139° Southeast 256 295 1,300  Level Memphis Center
02:48PM 36.3500 -90.0039 152° Southeast 256 295 1,300  Level Memphis Center
02:49PM 36.2956 -89.9528 143° Southeast 256 295 1,300  Level Memphis Center
02:50PM 36.2433 -89.8989 140° Southeast 256 295 1,300  Level Memphis Center
02:51PM 36.1889 -89.8478 143° Southeast 251 289 1,300  Level Memphis Center
02:52PM 36.1281 -89.8044 150° Southeast 251 289 1,300 300 Level Memphis Center
02:53PM 36.0742 -89.8458 212° Southwest 210 242 2,000 600 Climbing Memphis Center
02:54PM 36.0892 -89.9256 283° West 175 201 2,600 120 Climbing Memphis Center
02:56PM 36.2853 -90.0119 340° North 158 182 2,500 -180 Descending Memphis Center
02:57PM 36.3644 -90.0194 356° North 275 316 2,000 -780 Descending Memphis Center
02:58PM 36.4333 -90.0344 350° North 270 311 1,000 -540 Descending Memphis Center
02:59PM 36.4647 -90.0989 301° West 224 258 1,000 420 Level Memphis Center
03:00PM 36.4669 -90.1789 272° West 202 232 1,900 360 Climbing Memphis Center
03:01PM 36.4150 -90.1817 182° South 130 150 1,800 -120 Descending Memphis Center
03:02PM 36.4189 -90.1017 87° East 108 124 1,700 -60 Descending Memphis Center
03:03PM 36.4542 -90.0447 52° Northeast 159 183 1,700 240 Level Memphis Center
03:04PM 36.4689 -90.1092 286° West 82 94 2,200 840 Climbing Memphis Center
03:05PM 36.4483 -90.1842 251° West 137 158 3,400 120 Climbing Memphis Center
03:06PM 36.4128 -90.2744 244° Southwest 218 251 2,500 -720 Descending Memphis Center
03:07PM 36.3733 -90.3725 243° Southwest 285 328 2,000 -600 Descending Memphis Center
03:08PM 36.3211 -90.4600 233° Southwest 302 348 1,400 -300 Descending Memphis Center
03:09PM 36.2939 -90.5347 246° West 302 348 1,400 300 Level Memphis Center
03:10PM 36.3064 -90.6144 281° West 244 281 2,100 720 Climbing Memphis Center
03:11PM 36.3042 -90.6969 268° West 244 281 2,900 360 Climbing Memphis Center
03:12PM 36.2747 -90.7792 246° West 250 288 2,900 -360 Level Memphis Center
03:13PM 36.2225 -90.7558 160° South 178 205 2,200 -600 Descending Memphis Center
03:14PM 36.2081 -90.7017 108° East 118 136 1,800 -420 Descending Memphis Center
03:16PM 36.2564 -90.5217 72° East 275 316 1,300 -300 Descending Memphis Center
03:17PM 36.3003 -90.5064 16° North 213 245 1,200  Descending Memphis Center
03:18PM 36.3064 -90.5861 275° West 60 69 1,400 960 Climbing Memphis Center
03:19PM 36.3250 -90.6583 288° West 152 175 3,200 1,260 Climbing Memphis Center
03:20PM 36.3603 -90.7281 302° West 203 234 4,000 360 Climbing Memphis Center
03:21PM 36.3997 -90.7978 305° West 236 272 4,000 540 Level Memphis Center
03:22PM 36.4014 -90.8831 271° West 247 284 5,100 960 Climbing Memphis Center
03:23PM 36.3492 -90.9497 226° Southwest 232 267 6,000 600 Climbing Memphis Center
03:24PM 36.2842 -91.0083 216° Southwest 256 295 6,400 240 Climbing Memphis Center
03:25PM 36.2089 -91.0542 206° Southwest 277 319 6,500  Climbing Memphis Center
03:26PM 36.1253 -91.0919 200° South 301 346 6,500  Level Memphis Center
03:27PM 36.0333 -91.1092 189° South 318 366 6,500 -840 Level Memphis Center
03:28PM 35.9375 -91.1081 179° South 334 384 4,900 -1,560 Descending Memphis Center
03:29PM 35.8372 -91.1175 184° South 334 384 3,400 -180 Descending Memphis Center
03:31PM 35.8525 -91.3455 275° West  Level Estimated
03:35PM 35.7825 -91.4675 274° West 276 318 3,800  Level Memphis Center
03:36PM 35.8453 -91.4633 North 252 290 4,900 840 Climbing Memphis Center
03:37PM 35.8811 -91.3919 58° Northeast 173 199 5,500 300 Climbing Memphis Center
03:38PM 35.9038 -92.1645 275° West  Level Estimated
03:38PM 35.9236 -91.3106 57° Northeast 228 262 5,500  Level Memphis Center
03:39PM 35.9107 -92.2816 274° West  Level Estimated
03:39PM 35.9658 -91.2367 55° Northeast 249 287 5,500  Level Memphis Center
03:40PM 35.9175 -92.3987 274° West  Level Estimated
03:40PM 35.9853 -91.1497 75° East 249 287 5,500  Level Memphis Center
03:41PM 35.9942 -91.0575 83° East 254 292 5,500 -840 Level Memphis Center
03:42PM 36.0050 -90.9650 82° East 265 305 3,900 -1,500 Descending Memphis Center
03:43PM 35.9783 -90.8725 110° East 265 305 2,500 -900 Descending Memphis Center
03:44PM 35.9703 -90.7750 96° East 265 305 2,100 120 Descending Memphis Center
03:46PM 35.9831 -90.9741 275° West  Level Estimated
03:48PM 36.0175 -90.9472 274° West 275 316 3,100  Level Memphis Center
03:49PM 36.0192 -91.0525 271° West 275 316 3,000 60 Descending Memphis Center
03:51PM 35.9631 -91.2641 252° West  Level FlightAware Approximate
03:53PM 36.0312 -91.7712 274° West  Level Estimated
03:55PM 36.0219 -90.8986 246° West 275 316 3,600  Level Memphis Center
03:56PM 36.0214 -90.9883 270° West 269 310 3,800 -300 Climbing Memphis Center
03:57PM 35.9650 -91.0367 215° Southwest 244 281 3,100 -600 Descending Memphis Center
03:58PM 35.9217 -91.3029 246° West  Level FlightAware Approximate
03:58PM 35.9297 -90.9953 136° Southeast 120 138 2,600  Level Memphis Center
03:59PM 35.8837 -91.4069 246° West  Level FlightAware Approximate
04:00PM 35.8457 -91.5107 246° West  Level FlightAware Approximate
04:00PM 35.8856 -91.1393 249° West  Level FlightAware Approximate
04:03PM 36.0178 -90.8806 249° West 276 318 3,300  Level Memphis Center
04:04PM 36.0278 -90.9706 278° West 262 302 4,000 300 Climbing Memphis Center
04:05PM 36.0294 -91.0578 271° West 257 296 4,000 120 Level Memphis Center
04:06PM 36.0311 -91.1500 271° West 257 296 4,300 300 Climbing Memphis Center
04:07PM 35.6541 -91.8834 249° West  Level FlightAware Approximate
04:07PM 36.0344 -91.2450 273° West 264 304 4,600  Level Memphis Center
04:08PM 35.6207 -91.9893 249° West  Level FlightAware Approximate
04:08PM 36.0442 -91.3478 277° West 284 327 7,300  Level Memphis Center
04:09PM 35.5872 -92.0952 249° West  Level FlightAware Approximate
04:09PM 36.0475 -91.4481 272° West 303 349 10,200  Level Memphis Center
04:10PM 36.0569 -91.5611 276° West 317 365 11,200 1,320 Climbing Memphis Center
04:11PM 36.0389 -91.6867 260° West 331 381 12,900 2,040 Climbing Memphis Center
04:12PM 36.0250 -91.8147 262° West 370 426 15,300 2,160 Climbing Memphis Center
04:13PM 36.0256 -91.9483 270° West 386 444 17,300 1,800 Climbing Memphis Center
04:14PM 36.0550 -92.0797 286° West 386 444 18,900 1,560 Climbing Memphis Center
04:15PM 36.0783 -92.2008 283° West 397 457 20,500 1,560 Climbing Memphis Center
04:16PM 36.0617 -92.3367 261° West 397 457 22,100 1,320 Climbing Memphis Center
04:17PM 36.0428 -92.4747 260° West 404 465 23,200 1,260 Climbing Memphis Center
04:18PM 36.0236 -92.6156 260° West 415 478 24,700 1,500 Climbing Memphis Center
04:19PM 36.0083 -92.7561 262° West 415 478 26,200 1,380 Climbing Memphis Center
04:20PM 35.9931 -92.8967 262° West 420 483 27,500 1,020 Climbing Memphis Center
04:21PM 35.9756 -93.0347 261° West 420 483 28,300 660 Climbing Memphis Center
04:22PM 35.9600 -93.1831 263° West 426 490 28,900 600 Climbing Memphis Center
04:23PM 35.9439 -93.3286 262° West 432 497 29,600 540 Climbing Memphis Center
04:24PM 35.9236 -93.4792 261° West 432 497 30,000 180 Climbing Memphis Center
04:25PM 35.9053 -93.6244 261° West 442 509 30,000  Level Memphis Center
04:26PM 35.8886 -93.7775 262° West 442 509 30,000  Level Memphis Center
04:27PM 35.8700 -93.9253 261° West 442 509 30,000  Level Memphis Center
04:28PM 35.8506 -94.0883 262° West 442 509 30,000  Level Memphis Center
04:29PM 35.8333 -94.2386 262° West 442 509 30,000  Level Memphis Center
04:30PM 35.8122 -94.3836 260° West 442 509 30,000  Level Memphis Center
04:31PM 35.7950 -94.5286 262° West 442 509 30,000  Level Memphis Center
04:33PM 35.7569 -94.8253 261° West 444 511 30,000  Level Fort Worth Center
04:34PM 35.7369 -94.9717 260° West 444 511 30,000  Level Fort Worth Center
04:35PM 35.7206 -95.1000 261° West 444 511 30,000  Level Fort Worth Center
04:36PM 35.7003 -95.2461 260° West 444 511 30,000  Level Fort Worth Center
04:37PM 35.6819 -95.3897 261° West 437 503 30,000  Level Fort Worth Center
04:38PM 35.6633 -95.5333 261° West 432 497 30,000  Level Fort Worth Center
04:39PM 35.6425 -95.6767 260° West 432 497 30,000  Level Fort Worth Center
04:40PM 35.6233 -95.8178 261° West 432 497 30,000  Level Fort Worth Center
04:41PM 35.6000 -95.9586 259° West 426 490 30,000  Level Fort Worth Center
04:42PM 35.5808 -96.0992 261° West 426 490 30,000  Level Fort Worth Center
04:43PM 35.5614 -96.2372 260° West 426 490 30,000  Level Fort Worth Center
04:44PM 35.5417 -96.3778 260° West 426 490 30,000  Level Fort Worth Center
04:45PM 35.5219 -96.5183 260° West 426 490 30,000  Level Fort Worth Center
04:46PM 35.5000 -96.6564 259° West 426 490 30,000  Level Fort Worth Center
04:47PM 35.4797 -96.7942 260° West 426 490 30,000  Level Fort Worth Center
04:48PM 35.4594 -96.9319 260° West 426 490 30,000  Level Fort Worth Center
04:49PM 35.4392 -97.0697 260° West 426 490 30,000  Level Fort Worth Center
04:50PM 35.4228 -97.2122 262° West 426 490 30,000  Level Fort Worth Center
04:51PM 35.4000 -97.3653 260° West 426 490 30,000  Level Fort Worth Center
04:52PM 35.3769 -97.5028 258° West 426 490 30,000  Level Fort Worth Center
04:53PM 35.3539 -97.6453 259° West 433 498 30,000  Level Fort Worth Center
04:54PM 35.3347 -97.7800 260° West 420 483 30,000  Level Fort Worth Center
04:55PM 35.3133 -97.9172 259° West 415 478 30,000  Level Fort Worth Center
04:56PM 35.2939 -98.0569 260° West 410 472 30,000  Level Fort Worth Center
04:57PM 35.2744 -98.1917 260° West 410 472 30,000  Level Fort Worth Center
04:58PM 35.2547 -98.3289 260° West 410 472 30,000  Level Fort Worth Center
04:59PM 35.2328 -98.4658 259° West 410 472 30,000  Level Fort Worth Center
05:00PM 35.2150 -98.5978 261° West 404 465 30,000  Level Fort Worth Center
05:01PM 35.1928 -98.7347 259° West 411 473 30,000  Level Fort Worth Center
05:02PM 35.1703 -98.8739 259° West 411 473 30,000  Level Fort Worth Center
05:03PM 35.1500 -99.0106 260° West 411 473 30,000  Level Fort Worth Center
05:04PM 35.1292 -99.1472 259° West 411 473 30,000  Level Fort Worth Center
05:05PM 35.1064 -99.2864 259° West 411 473 30,000  Level Fort Worth Center
05:06PM 35.0878 -99.4053 259° West 411 473 30,000  Level Fort Worth Center
05:08PM 35.0425 -99.6983 259° West 409 471 30,000  Level Albuquerque Center
05:09PM 35.0214 -99.8347 259° West 408 470 30,000  Level Albuquerque Center
05:11PM 34.9958 -99.9972 259° West 406 467 30,000  Level Albuquerque Center
05:12PM 34.9733 -100.1308 258° West 402 463 30,000  Level Albuquerque Center
05:13PM 34.9511 -100.2669 259° West 405 466 30,000  Level Albuquerque Center
05:14PM 34.9256 -100.4167 258° West 410 472 30,000  Level Albuquerque Center
05:15PM 34.9033 -100.5528 259° West 411 473 30,000  Level Albuquerque Center
05:16PM 34.8797 -100.6894 258° West 412 474 30,000  Level Albuquerque Center
05:17PM 34.8569 -100.8264 259° West 412 474 30,000  Level Albuquerque Center
05:18PM 34.8333 -100.9639 258° West 414 476 30,000  Level Albuquerque Center
05:19PM 34.8092 -101.1019 258° West 415 478 30,000  Level Albuquerque Center
05:20PM 34.7847 -101.2389 258° West 414 476 30,000  Level Albuquerque Center
05:21PM 34.7561 -101.4033 258° West 413 475 30,000  Level Albuquerque Center
05:22PM 34.7308 -101.5411 257° West 415 478 30,000  Level Albuquerque Center
05:23PM 34.7075 -101.6797 258° West 416 479 30,000  Level Albuquerque Center
05:24PM 34.6817 -101.8203 257° West 422 486 30,000  Level Albuquerque Center
05:25PM 34.6569 -101.9581 258° West 419 482 30,000  Level Albuquerque Center
05:26PM 34.6322 -102.0961 258° West 418 481 30,000  Level Albuquerque Center
05:27PM 34.6061 -102.2350 257° West 420 483 30,000  Level Albuquerque Center
05:28PM 34.5814 -102.3758 258° West 424 488 30,000  Level Albuquerque Center
05:29PM 34.5497 -102.5447 257° West 427 491 30,000  Level Albuquerque Center
05:30PM 34.5228 -102.6931 258° West 431 496 30,000  Level Albuquerque Center
05:31PM 34.4953 -102.8367 257° West 433 498 30,000  Level Albuquerque Center
05:32PM 34.4892 -102.9728 267° West 427 491 30,000  Level Albuquerque Center
05:33PM 34.4847 -103.1283 268° West 429 494 30,000  Level Albuquerque Center
05:34PM 34.4797 -103.2717 268° West 425 489 30,000  Level Albuquerque Center
05:35PM 34.4733 -103.4164 267° West 425 489 30,000  Level Albuquerque Center
05:36PM 34.4692 -103.5614 268° West 427 491 30,000  Level Albuquerque Center
05:37PM 34.4619 -103.7072 267° West 428 493 30,000  Level Albuquerque Center
05:38PM 34.4564 -103.8517 267° West 426 490 30,000  Level Albuquerque Center
05:39PM 34.4503 -103.9983 267° West 428 493 30,000  Level Albuquerque Center
05:40PM 34.4425 -104.1697 267° West 430 495 30,000  Level Albuquerque Center
05:41PM 34.4369 -104.3139 267° West 426 490 30,000  Level Albuquerque Center
05:42PM 34.4306 -104.4583 267° West 425 489 30,000  Level Albuquerque Center
05:43PM 34.4236 -104.6014 267° West 423 487 30,000  Level Albuquerque Center
05:44PM 34.4158 -104.7478 266° West 427 491 30,000  Level Albuquerque Center
05:46PM 34.4089 -104.8931 267° West 428 493 30,000  Level Albuquerque Center
05:47PM 34.4014 -105.0367 266° West 425 489 30,000  Level Albuquerque Center
05:48PM 34.3942 -105.1814 267° West 426 490 30,000  Level Albuquerque Center
05:49PM 34.3872 -105.3286 267° West 430 495 30,000  Level Albuquerque Center
05:50PM 34.3781 -105.4731 266° West 429 494 30,000  Level Albuquerque Center
05:51PM 34.3689 -105.6436 266° West 430 495 30,000  Level Albuquerque Center
05:52PM 34.3678 -105.7892 270° West 430 495 30,000  Level Albuquerque Center
05:53PM 34.3761 -105.9375 274° West 434 499 30,000  Level Albuquerque Center
05:54PM 34.3792 -106.0858 271° West 435 501 30,000  Level Albuquerque Center
05:55PM 34.3828 -106.2281 272° West 436 502 30,000  Level Albuquerque Center
05:56PM 34.3861 -106.3772 272° West 442 509 30,000  Level Albuquerque Center
05:57PM 34.3906 -106.5486 272° West 436 502 30,000  Level Albuquerque Center
05:58PM 34.3944 -106.6994 272° West 444 511 30,000  Level Albuquerque Center
05:59PM 34.3975 -106.8478 271° West 443 510 30,000  Level Albuquerque Center
06:00PM 34.4011 -107.0075 272° West 441 507 30,000  Level Albuquerque Center
06:01PM 34.4050 -107.1556 272° West 441 507 30,000  Level Albuquerque Center
06:02PM 34.4031 -107.2978 269° West 437 503 30,000  Level Albuquerque Center
06:03PM 34.4081 -107.4494 272° West 442 509 30,000  Level Albuquerque Center
06:04PM 34.4108 -107.5986 271° West 444 511 30,000  Level Albuquerque Center
06:05PM 34.4114 -107.7475 270° West 442 509 30,000  Level Albuquerque Center
06:06PM 34.4139 -107.8983 271° West 445 512 30,000  Level Albuquerque Center
06:07PM 34.4156 -108.0486 271° West 446 513 30,000  Level Albuquerque Center
06:08PM 34.4186 -108.2292 271° West 446 513 30,000  Level Albuquerque Center
06:09PM 34.4200 -108.3792 271° West 446 513 30,000  Level Albuquerque Center
06:10PM 34.4228 -108.5331 271° West 445 512 30,000  Level Albuquerque Center
06:11PM 34.4494 -108.6697 283° West 438 504 30,000  Level Albuquerque Center
06:12PM 34.4772 -108.8331 282° West 441 507 30,000  Level Albuquerque Center
06:13PM 34.5008 -108.9717 282° West 440 506 30,000  Level Albuquerque Center
06:14PM 34.5172 -109.1369 277° West 446 513 30,000  Level Albuquerque Center
06:15PM 34.4503 -109.2647 238° Southwest 466 536 30,000  Level Albuquerque Center
06:16PM 34.3825 -109.3936 238° Southwest 472 543 30,000  Level Albuquerque Center
06:17PM 34.3067 -109.5436 239° Southwest 470 541 30,000  Level Albuquerque Center
06:18PM 34.2542 -109.6828 245° Southwest 469 540 30,000  Level Albuquerque Center
06:19PM 34.1897 -109.8414 244° Southwest 469 540 30,000  Level Albuquerque Center
06:21PM 34.1333 -109.9750 243° Southwest 468 539 30,000  Level Albuquerque Center
06:22PM 34.0769 -110.1094 243° Southwest 466 536 30,000  Level Albuquerque Center
06:23PM 34.0183 -110.2497 243° Southwest 469 540 30,000  Level Albuquerque Center
06:24PM 33.9206 -110.3978 232° Southwest 475 547 30,000  Level Albuquerque Center
06:25PM 33.8353 -110.5239 231° Southwest 479 551 30,000  Level Albuquerque Center
06:26PM 33.7472 -110.6467 229° Southwest 482 555 30,000  Level Albuquerque Center
06:27PM 33.6761 -110.7778 237° Southwest 473 544 30,000  Level Albuquerque Center
06:28PM 33.6403 -110.9278 254° West 465 535 30,000  Level Albuquerque Center
06:29PM 33.6017 -111.0761 253° West 465 535 30,000  Level Albuquerque Center
06:30PM 33.5611 -111.2242 252° West 466 536 30,000  Level Albuquerque Center
06:31PM 33.5206 -111.3725 252° West 466 536 30,000  Level Albuquerque Center
06:32PM 33.4794 -111.5200 252° West 465 535 30,000  Level Albuquerque Center
06:33PM 33.4308 -111.6961 252° West 463 533 30,000  Level Albuquerque Center
06:34PM 33.3897 -111.8444 252° West 466 536 30,000  Level Albuquerque Center
06:35PM 33.3486 -111.9914 252° West 464 534 30,000  Level Albuquerque Center
06:36PM 33.3078 -112.1378 252° West 463 533 30,000  Level Albuquerque Center
06:37PM 33.2658 -112.2847 251° West 465 535 30,000  Level Albuquerque Center
06:38PM 33.2239 -112.4308 251° West 465 535 30,000  Level Albuquerque Center
06:39PM 33.1828 -112.5767 251° West 465 535 30,000 -60 Level Albuquerque Center
06:40PM 33.1403 -112.7281 252° West 465 535 29,900 -60 Descending Albuquerque Center
06:41PM 33.0994 -112.8742 252° West 466 536 29,900  Level Albuquerque Center
06:42PM 33.0489 -113.0469 251° West 465 535 29,900 -1,080 Level Albuquerque Center
06:43PM 33.0064 -113.1917 251° West 466 536 27,800 -2,340 Descending Albuquerque Center
06:44PM 32.9658 -113.3331 251° West 463 533 25,100 -2,580 Descending Albuquerque Center
06:45PM 32.9250 -113.4658 250° West 451 519 22,500 -2,640 Descending Albuquerque Center
06:46PM 32.8883 -113.5928 251° West 427 491 19,800 -2,700 Descending Albuquerque Center
06:47PM 32.8517 -113.7181 251° West 412 474 17,600 -2,460 Descending Los Angeles Center
06:47PM 32.8403 -113.7567 251° West 390 449 16,900 -2,340 Descending Los Angeles Center
06:48PM 32.8172 -113.8350 251° West 389 448 15,200 -2,640 Descending Los Angeles Center
06:48PM 32.8028 -113.8814 250° West 374 430 14,300 -2,340 Descending Los Angeles Center
06:49PM 32.7833 -113.9506 252° West 378 435 12,800 -2,460 Descending Los Angeles Center
06:49PM 32.7739 -113.9961 256° West 372 428 11,800 -1,980 Descending Los Angeles Center
06:50PM 32.7775 -114.0478 275° West 377 434 10,800 -1,380 Descending Los Angeles Center
06:50PM 32.7758 -114.1147 268° West 358 412 10,400 -780 Descending Los Angeles Center
06:51PM 32.7794 -114.1828 274° West 345 397 10,000 -720 Descending Los Angeles Center
06:51PM 32.7828 -114.2269 275° West 305 351 9,700 -1,080 Descending Los Angeles Center
06:52PM 32.7856 -114.2825 273° West 309 356 8,900 -1,320 Descending Los Angeles Center
06:52PM 32.7864 -114.3222 271° West 291 335 8,400 -1,680 Descending Los Angeles Center
06:53PM 32.7886 -114.3989 272° West 295 339 7,200 -1,500 Descending Los Angeles Center
06:53PM 32.7892 -114.4256 271° West 291 335 6,900 -1,260 Descending Los Angeles Center
06:54PM 32.7919 -114.4947 273° West 293 337 5,900 -1,320 Descending Los Angeles Center
06:55PM 32.7922 -114.5186 271° West 291 335 5,600 -1,080 Descending Los Angeles Center
06:56PM 32.7922 -114.6072 270° West 275 316 4,600 -1,200 Descending Los Angeles Center
06:57PM 32.7842 -114.7006 264° West 265 305 3,300 -1,260 Descending Los Angeles Center
06:57PM 32.7853 -114.6914 82° East 270 311 3,300 -1,320 Level Los Angeles Center
06:58PM 32.7769 -114.7781 263° West 266 306 1,900 -1,020 Descending Los Angeles Center
06:59PM 32.7650 -114.8811 262° West 264 304 1,200 -420 Descending Los Angeles Center
07:00PM 32.7608 -114.9706 267° West 267 307 1,100 -60 Descending Los Angeles Center
07:01PM 32.7581 -115.0600 268° West 269 310 1,100  Level Los Angeles Center
07:02PM 32.7558 -115.1506 268° West 273 314 1,200  Climbing Los Angeles Center
07:03PM 32.7547 -115.2350 269° West 266 306 1,100  Descending Los Angeles Center
07:04PM 32.7553 -115.3200 270° West 262 302 1,200 -60 Climbing Los Angeles Center
07:05PM 32.8153 -115.4014 311° West 271 312 1,000 -180 Descending Los Angeles Center
07:06PM 32.8603 -115.4725 307° West 271 312 900 -60 Descending Los Angeles Center
07:07PM 32.9061 -115.5414 308° West 270 311 900  Level Los Angeles Center
07:08PM 32.9628 -115.5903 324° Northwest 262 302 900  Level Los Angeles Center
07:09PM 33.0208 -115.6389 325° Northwest 257 296 900 -60 Level Los Angeles Center
07:10PM 33.0800 -115.6897 324° Northwest 258 297 800 -60 Descending Los Angeles Center
07:11PM 33.1508 -115.7506 324° Northwest 261 300 800  Level Los Angeles Center
07:12PM 33.2108 -115.8011 325° Northwest 262 302 800  Level Los Angeles Center
07:13PM 33.2711 -115.8519 325° Northwest 264 304 800 -60 Level Los Angeles Center
07:14PM 33.3306 -115.9031 324° Northwest 265 305 700 -60 Descending Los Angeles Center
07:15PM 33.3892 -115.9539 324° Northwest 264 304 700  Level Los Angeles Center
07:19PM 33.6500 -116.1833 324° Northwest 269 310 800  Climbing Southern California TRACON
07:21PM 33.7167 -116.2500 320° Northwest 265 305 1,000 120 Climbing Southern California TRACON
07:22PM 33.7667 -116.3167 312° West 259 298 1,100 60 Climbing Southern California TRACON
07:23PM 33.8167 -116.3833 312° West 286 329 1,200 300 Climbing Southern California TRACON
07:23PM 33.8667 -116.4500 312° West 267 307 1,700 420 Climbing Southern California TRACON
07:24PM 33.9000 -116.5167 301° West 264 304 2,000 240 Climbing Southern California TRACON
07:25PM 33.9167 -116.6167 281° West 284 327 2,200 420 Climbing Southern California TRACON
07:26PM 33.9333 -116.7000 284° West 268 308 2,900 360 Climbing Southern California TRACON
07:27PM 33.9333 -116.7833 270° West 268 308 2,900 180 Level Southern California TRACON
07:30PM 33.9986 -117.0222 288° West 293 337 3,600  Climbing Los Angeles Center
07:31PM 34.0558 -117.1003 312° West 263 303 3,100 -420 Descending Los Angeles Center
07:32PM 34.0608 -117.1639 275° West 247 284 2,800 -540 Descending Los Angeles Center
07:33PM 34.0572 -117.2703 268° West 257 296 2,100 -420 Descending Los Angeles Center
07:34PM 34.0500 -117.3667 265° West 260 299 2,000 -60 Descending Southern California TRACON
07:35PM 34.0500 -117.4667 270° West 256 295 2,000  Level Southern California TRACON
07:36PM 34.0500 -117.5500 270° West 259 298 2,000  Level Southern California TRACON
07:37PM 34.0500 -117.6333 270° West 259 298 2,000  Level Southern California TRACON
07:38PM 34.0667 -117.7167 284° West 252 290 2,000  Level Southern California TRACON
07:39PM 34.0833 -117.8000 284° West 252 290 2,100  Climbing Southern California TRACON
07:40PM 34.0833 -117.8833 270° West 259 298 2,000 -420 Descending Southern California TRACON
07:41PM 34.0833 -117.9667 270° West 243 280 1,300 -360 Descending Southern California TRACON
07:42PM 34.0667 -118.0500 256° West 237 273 1,300 420 Level Southern California TRACON
07:43PM 34.0833 -118.1167 287° West 257 296 2,200 1,800 Climbing Southern California TRACON
07:45PM 34.1864 -118.1167 360° North 274 315 5,400 2,760 Climbing Los Angeles Center
07:46PM 34.2642 -118.1058 North 280 322 8,700 2,220 Climbing Los Angeles Center
07:47PM 34.3475 -118.0964 North 297 342 10,000 660 Climbing Los Angeles Center
07:48PM 34.4306 -118.0539 23° Northeast 301 346 10,100  Climbing Los Angeles Center
07:49PM 34.5117 -118.0247 17° North 305 351 10,100  Level Los Angeles Center
07:50PM 34.5936 -117.9983 15° North 306 352 10,100  Level Los Angeles Center
07:51PM 34.6750 -117.9681 17° North 307 353 10,100 -60 Level Los Angeles Center
07:52PM 34.7728 -117.9328 17° North 305 351 10,000 -240 Descending Los Angeles Center
07:53PM 34.8553 -117.9092 13° North 304 350 9,700 -540 Descending Los Angeles Center
07:54PM 34.9375 -117.8858 13° North 303 349 9,000 -780 Descending Los Angeles Center
07:55PM 34.9944 -117.8311 38° Northeast 280 322 8,100 -1,020 Descending Los Angeles Center
07:56PM 34.9933 -117.7442 91° East 270 311 7,000 -960 Descending Los Angeles Center
07:57PM 34.9386 -117.6944 143° Southeast 265 305 6,000 -1,020 Descending Los Angeles Center
07:59PM 34.8567 -117.6569 159° South 249 287 4,500 -660 Descending Los Angeles Center
08:00PM 34.8969 -117.5969 51° Northeast 232 267 4,500  Level Los Angeles Center
08:01PM 34.9400 -117.6486 315° West 226 260 4,500 -120 Level Los Angeles Center
08:02PM 34.9686 -117.7161 297° West 221 254 4,300 -540 Descending Los Angeles Center
08:03PM 34.9561 -117.7839 257° West 214 246 3,500 -780 Descending Los Angeles Center
08:04PM 34.9269 -117.8422 239° Southwest 207 238 2,700 -120 Descending Los Angeles Center
08:05PM 34.8906 -117.9133 238° Southwest 206 237 3,300 660 Climbing Los Angeles Center
08:06PM 34.8328 -117.9433 203° Southwest 234 269 4,100 420 Climbing Los Angeles Center
08:07PM 34.7697 -117.9661 197° South 237 273 4,200  Climbing Los Angeles Center
08:08PM 34.7089 -117.9900 198° South 235 270 4,100 -420 Descending Los Angeles Center
08:09PM 34.6639 -118.0208 209° Southwest 206 237 3,400 -780 Descending Los Angeles Center
08:10PM 34.6319 -118.0689 231° Southwest 167 192 2,500 -480 Descending Los Angeles Center
08:11PM 34.6217 -118.0856 233° Southwest 93 107 2,500  Level Los Angeles Center
08:12PM 34.6225 -118.0867 312° West 75 86 2,500  Level Los Angeles Center